Time;durP1;ratioP1;P1;durP2;ratioP2;P2;SDS_P1;SDS_P2;PMS_P1;PMS_P2;Temp;Humidity;BMP_temperature;BMP_pressure;BME280_temperature;BME280_humidity;BME280_pressure;Samples;Min_cycle;Max_cycle;Signal;HPM_P1;HPM_P2
2022/05/30 07:14:48;;;;;;;;;4.00;4.00;;;;;15.99;96.15;100092.66;6358289;22;46125;-92
2022/05/30 07:37:55;;;;;;;;;2.00;2.00;;;;;16.61;93.73;100076.59;6394457;22;45196;-90
2022/05/30 08:21:36;;;;;;;;;2.00;2.00;;;;;18.04;87.37;100135.06;6422870;22;44857;-88
2022/05/30 08:24:01;;;;;;;;;2.67;2.00;;;;;18.11;87.63;100135.97;6399227;22;44636;-88
2022/05/30 10:12:42;;;;;;;;;1.00;1.00;;;;;35.95;67.64;100882.81;6423963;22;46840;-90
2022/05/30 10:20:41;;;;;;;;;0.67;0.67;;;;;41.92;57.38;100944.38;6418530;22;45822;-92
2022/05/30 10:29:21;;;;;;;;;1.33;0.00;;;;;38.64;49.68;100964.94;6421024;22;45142;-86
2022/05/30 10:31:55;;;;;;;;;0.33;0.00;;;;;36.93;49.28;100976.19;6399468;22;45146;-91
2022/05/30 10:34:42;;;;;;;;;0.67;0.00;;;;;38.35;51.04;100965.97;6399926;22;46086;-91
2022/05/30 10:40:06;;;;;;;;;1.00;0.00;;;;;42.65;48.62;100971.16;6456861;22;45238;-88
2022/05/30 10:42:44;;;;;;;;;0.00;0.00;;;;;44.40;48.28;100958.97;6431308;22;44750;-90
2022/05/30 10:45:26;;;;;;;;;0.00;0.00;;;;;45.83;46.19;100972.66;6450045;22;47014;-91
2022/05/30 10:50:43;;;;;;;;;0.00;0.00;;;;;47.90;43.81;100974.91;6391341;22;45248;-93
2022/05/30 10:53:24;;;;;;;;;0.00;0.00;;;;;49.04;42.65;100969.44;6388265;22;45248;-94
2022/05/30 10:55:52;;;;;;;;;2.00;0.00;;;;;50.01;40.45;100971.03;6361419;22;47596;-93
2022/05/30 10:58:33;;;;;;;;;0.00;0.00;;;;;48.35;38.32;100962.53;6365157;22;45268;-92
2022/05/30 11:01:06;;;;;;;;;0.33;0.33;;;;;45.82;37.74;100972.84;6392993;22;44663;-90
2022/05/30 11:03:43;;;;;;;;;0.00;0.00;;;;;42.75;36.89;100970.34;6391534;22;44890;-90
2022/05/30 11:06:18;;;;;;;;;1.00;0.00;;;;;40.18;38.19;100973.81;6392620;22;45334;-90
2022/05/30 11:09:05;;;;;;;;;0.00;0.00;;;;;40.83;39.82;100977.09;6338535;22;44686;-89
2022/05/30 11:12:00;;;;;;;;;0.33;0.33;;;;;43.11;39.79;100967.16;6366630;22;44643;-92
2022/05/30 11:14:56;;;;;;;;;1.33;0.33;;;;;44.12;39.20;100975.44;6365076;22;45162;-90
2022/05/30 11:17:33;;;;;;;;;0.00;0.00;;;;;42.28;38.04;100963.38;6357668;22;47660;-90
2022/05/30 11:20:19;;;;;;;;;0.00;0.00;;;;;40.27;37.82;100963.13;6364606;22;44990;-90
2022/05/30 11:22:50;;;;;;;;;0.00;0.00;;;;;38.21;38.69;100967.84;6391912;22;45453;-89
2022/05/30 11:25:23;;;;;;;;;0.67;0.00;;;;;37.60;39.92;100968.28;6363611;22;44719;-88
2022/05/30 11:28:07;;;;;;;;;0.00;0.00;;;;;38.79;40.54;100962.94;6375121;22;48238;-89
2022/05/30 11:30:48;;;;;;;;;0.33;0.33;;;;;41.30;40.56;100965.09;6376521;22;44687;-89
2022/05/30 11:33:25;;;;;;;;;0.33;0.00;;;;;43.76;39.00;100962.22;6350465;22;44962;-90
2022/05/30 11:36:12;;;;;;;;;0.00;0.00;;;;;45.49;38.15;100951.19;6350589;22;45490;-88
2022/05/30 11:39:13;;;;;;;;;0.00;0.00;;;;;47.40;37.27;100952.56;6349453;22;46688;-91
2022/05/30 11:41:51;;;;;;;;;0.00;0.00;;;;;48.88;36.60;100950.88;6249624;22;44896;-90
2022/05/30 11:44:44;;;;;;;;;0.00;0.00;;;;;47.98;32.59;100951.78;6251381;22;45441;-92
2022/05/30 11:47:23;;;;;;;;;0.00;0.00;;;;;48.93;34.61;100951.22;6249947;22;45375;-91
2022/05/30 11:50:11;;;;;;;;;0.00;0.00;;;;;50.55;34.04;100950.63;6223198;22;47078;-89
2022/05/30 11:52:46;;;;;;;;;0.00;0.00;;;;;52.41;34.01;100951.25;6253313;22;45417;-89
2022/05/30 11:55:25;;;;;;;;;0.00;0.00;;;;;53.86;33.40;100955.16;6249819;22;44774;-90
2022/05/30 11:57:59;;;;;;;;;0.00;0.00;;;;;55.13;31.91;100956.13;6249491;22;45668;-90
2022/05/30 12:00:34;;;;;;;;;0.33;0.00;;;;;56.15;31.24;100953.34;6224243;22;47329;-90
2022/05/30 12:03:36;;;;;;;;;1.00;0.00;;;;;57.08;30.71;100949.84;6248985;22;45311;-90
2022/05/30 12:06:23;;;;;;;;;0.00;0.00;;;;;56.71;29.16;100955.31;6250903;22;45337;-90
2022/05/30 12:08:57;;;;;;;;;0.00;0.00;;;;;53.33;28.50;100959.63;6247134;22;45883;-92
2022/05/30 12:11:47;;;;;;;;;0.00;0.00;;;;;49.89;28.93;100948.31;6251163;22;45425;-91
2022/05/30 12:14:12;;;;;;;;;1.00;0.00;;;;;46.67;29.97;100944.69;6248108;22;45240;-90
2022/05/30 12:17:12;;;;;;;;;0.00;0.00;;;;;43.88;30.49;100938.94;6366656;22;45226;-90
2022/05/30 12:25:54;;;;;;;;;0.00;0.00;;;;;36.39;34.35;100938.41;6380156;22;45457;-89
2022/05/30 12:28:29;;;;;;;;;0.00;0.00;;;;;35.06;34.65;100933.28;6376559;22;44681;-88
2022/05/30 12:31:08;;;;;;;;;0.00;0.00;;;;;33.88;35.80;100941.22;6349859;22;45186;-89
2022/05/30 12:33:33;;;;;;;;;0.00;0.00;;;;;32.77;36.08;100931.88;6377631;22;45741;-89
2022/05/30 12:36:10;;;;;;;;;0.00;0.00;;;;;31.89;37.03;100937.44;6351223;22;45308;-88
2022/05/30 12:38:56;;;;;;;;;0.00;0.00;;;;;31.18;37.87;100931.22;6378008;22;45266;-88
2022/05/30 12:41:29;;;;;;;;;0.33;0.33;;;;;30.74;38.71;100933.69;6378351;22;45276;-87
2022/05/30 12:43:55;;;;;;;;;0.00;0.00;;;;;32.55;39.05;100927.38;6378063;22;45453;-88
2022/05/30 12:46:23;;;;;;;;;0.00;0.00;;;;;34.29;38.81;100920.97;6380174;22;45300;-89
2022/05/30 12:48:58;;;;;;;;;0.33;0.00;;;;;36.26;38.38;100921.00;6379130;22;45314;-89
2022/05/30 12:51:33;;;;;;;;;0.33;0.33;;;;;35.72;37.21;100920.53;6381551;22;44695;-90
2022/05/30 12:54:01;;;;;;;;;0.00;0.00;;;;;34.89;37.24;100924.16;6348622;22;46166;-89
2022/05/30 12:56:38;;;;;;;;;1.00;1.00;;;;;34.27;37.61;100922.00;6377480;22;45267;-89
2022/05/30 12:59:03;;;;;;;;;0.00;0.00;;;;;33.89;38.53;100919.34;6350008;22;45311;-88
2022/05/30 13:01:44;;;;;;;;;0.00;0.00;;;;;33.32;38.46;100921.19;6350202;22;45483;-88
2022/05/30 13:04:15;;;;;;;;;0.00;0.00;;;;;32.83;38.95;100914.41;6349345;22;48337;-88
2022/05/30 13:07:01;;;;;;;;;0.33;0.33;;;;;32.20;38.90;100918.97;6377287;22;45399;-89
2022/05/30 13:09:40;;;;;;;;;1.67;0.33;;;;;31.55;39.65;100912.59;6378968;22;45397;-90
2022/05/30 13:12:12;;;;;;;;;1.00;0.00;;;;;30.85;39.62;100911.59;6376648;22;45271;-89
2022/05/30 13:14:37;;;;;;;;;0.00;0.00;;;;;30.18;40.58;100908.56;6375541;22;46388;-90
2022/05/30 13:17:23;;;;;;;;;0.00;0.00;;;;;29.48;41.43;100907.25;6379485;22;44552;-90
2022/05/30 13:19:58;;;;;;;;;0.00;0.00;;;;;28.89;41.75;100901.75;6349316;22;45375;-89
2022/05/30 13:22:39;;;;;;;;;0.33;0.33;;;;;28.33;42.06;100910.47;6378799;22;45386;-90
2022/05/30 13:25:08;;;;;;;;;0.33;0.33;;;;;27.81;42.52;100905.50;6380681;22;45516;-90
2022/05/30 13:27:34;;;;;;;;;0.00;0.00;;;;;27.45;43.73;100909.00;6376406;22;45203;-90
2022/05/30 13:30:14;;;;;;;;;2.67;2.00;;;;;27.16;44.09;100897.97;6379705;22;44675;-88
2022/05/30 13:32:40;;;;;;;;;1.00;0.00;;;;;26.97;44.58;100901.06;6375908;22;45250;-89
2022/05/30 13:35:13;;;;;;;;;0.00;0.00;;;;;26.87;44.57;100888.69;6377651;22;45595;-88
2022/05/30 13:37:43;;;;;;;;;0.00;0.00;;;;;26.82;44.85;100888.81;6350632;22;45338;-89
2022/05/30 13:40:16;;;;;;;;;1.00;1.00;;;;;26.85;45.04;100898.63;6377103;22;45155;-89
2022/05/30 13:42:52;;;;;;;;;0.00;0.00;;;;;26.90;45.20;100888.66;6377282;22;45542;-89
2022/05/30 13:45:21;;;;;;;;;0.00;0.00;;;;;26.98;45.08;100888.47;6348183;22;46108;-89
2022/05/30 13:47:46;;;;;;;;;1.00;1.00;;;;;27.13;45.20;100876.50;6376809;22;45359;-89
2022/05/30 13:50:12;;;;;;;;;0.00;0.00;;;;;27.48;45.55;100878.41;6345545;22;45526;-89
2022/05/30 13:52:38;;;;;;;;;4.00;2.00;;;;;27.75;45.71;100871.47;6345016;22;44894;-89
2022/05/30 13:55:08;;;;;;;;;0.00;0.00;;;;;29.48;46.61;100872.09;6346365;22;45348;-90
2022/05/30 13:57:34;;;;;;;;;2.00;1.00;;;;;33.42;47.00;100858.22;6345161;22;45302;-89
2022/05/30 14:00:05;;;;;;;;;0.00;0.00;;;;;37.58;44.81;100860.72;6344885;22;45319;-90
2022/05/30 14:02:33;;;;;;;;;0.00;0.00;;;;;41.28;42.78;100860.63;6342216;22;45503;-95
2022/05/30 14:05:11;;;;;;;;;0.00;0.00;;;;;44.48;40.53;100864.16;6345729;22;45611;-91
2022/05/30 14:07:49;;;;;;;;;0.00;0.00;;;;;47.02;38.73;100867.78;6348866;22;44740;-92
2022/05/30 14:10:22;;;;;;;;;1.00;0.00;;;;;49.08;36.95;100864.09;6349030;22;45413;-90
2022/05/30 14:12:49;;;;;;;;;0.00;0.00;;;;;50.75;36.08;100868.03;6348789;22;44868;-91
2022/05/30 14:15:28;;;;;;;;;0.00;0.00;;;;;52.09;33.93;100859.31;6343575;22;46160;-92
2022/05/30 14:17:54;;;;;;;;;1.00;0.00;;;;;53.31;32.79;100864.53;6342879;22;45229;-92
2022/05/30 14:20:25;;;;;;;;;0.00;0.00;;;;;54.26;31.37;100858.84;6343685;22;45277;-92
2022/05/30 14:22:59;;;;;;;;;0.00;0.00;;;;;54.92;30.72;100863.50;6344900;22;45347;-92
2022/05/30 14:25:32;;;;;;;;;0.00;0.00;;;;;55.01;30.10;100861.28;6345811;22;47945;-93
2022/05/30 14:28:00;;;;;;;;;0.00;0.00;;;;;55.08;29.21;100869.63;6346834;22;45410;-92
2022/05/30 14:30:32;;;;;;;;;0.33;0.33;;;;;55.60;28.91;100862.97;6319514;22;45327;-91
2022/05/30 14:33:09;;;;;;;;;0.00;0.00;;;;;56.16;27.87;100858.50;6344402;22;45687;-92
2022/05/30 14:35:34;;;;;;;;;0.00;0.00;;;;;56.46;27.62;100863.34;6345412;22;46371;-93
2022/05/30 14:38:08;;;;;;;;;0.67;0.67;;;;;56.57;27.34;100863.63;6344670;22;45306;-92
2022/05/30 14:40:40;;;;;;;;;0.67;0.00;;;;;56.65;27.56;100870.91;6345769;22;45301;-91
2022/05/30 14:43:28;;;;;;;;;0.00;0.00;;;;;56.01;26.80;100864.50;6347728;22;45181;-91
2022/05/30 14:46:16;;;;;;;;;0.00;0.00;;;;;53.51;27.05;100855.25;6348789;22;45587;-91
2022/05/30 14:48:47;;;;;;;;;0.00;0.00;;;;;50.41;27.05;100863.94;6353082;22;45311;-91
2022/05/30 14:51:20;;;;;;;;;1.00;1.00;;;;;47.42;27.57;100859.69;6352204;22;45334;-91
2022/05/30 14:53:50;;;;;;;;;1.00;0.00;;;;;44.84;28.79;100857.00;6382901;22;44690;-90
2022/05/30 14:56:23;;;;;;;;;2.00;0.67;;;;;42.56;29.39;100856.13;6381946;22;45466;-90
2022/05/30 14:59:03;;;;;;;;;0.00;0.00;;;;;40.70;30.25;100858.94;6378108;22;45385;-91
2022/05/30 15:01:29;;;;;;;;;1.67;1.00;;;;;38.96;31.29;100851.16;6377689;22;45190;-90
2022/05/30 15:04:05;;;;;;;;;1.00;0.00;;;;;37.54;32.25;100846.38;6352134;22;45260;-90
2022/05/30 15:06:36;;;;;;;;;0.00;0.00;;;;;36.14;32.50;100857.94;6380561;22;45525;-90
2022/05/30 15:09:02;;;;;;;;;2.00;0.00;;;;;34.90;33.09;100856.91;6381132;22;45325;-90
2022/05/30 15:11:27;;;;;;;;;1.00;1.00;;;;;33.87;34.46;100847.78;6377333;22;45286;-90
2022/05/30 15:13:55;;;;;;;;;0.00;0.00;;;;;33.06;35.10;100859.91;6377534;22;47711;-90
2022/05/30 15:16:22;;;;;;;;;0.33;0.33;;;;;32.43;35.29;100854.63;6334367;22;47160;-90
2022/05/30 15:18:48;;;;;;;;;1.00;1.00;;;;;31.83;35.97;100851.75;6355756;22;45353;-90
2022/05/30 15:21:38;;;;;;;;;0.00;0.00;;;;;31.21;36.93;100856.03;6336099;22;45298;-90
2022/05/30 15:24:25;;;;;;;;;0.33;0.33;;;;;30.43;37.47;100867.13;6362879;22;45313;-91
2022/05/30 15:26:51;;;;;;;;;1.00;1.00;;;;;29.84;37.75;100860.09;6334597;22;47726;-90
2022/05/30 15:29:18;;;;;;;;;0.00;0.00;;;;;29.30;38.18;100865.47;6335691;22;45531;-90
2022/05/30 15:31:44;;;;;;;;;0.00;0.00;;;;;28.81;38.72;100855.22;6335830;22;45363;-88
2022/05/30 15:34:11;;;;;;;;;2.00;0.00;;;;;28.41;39.29;100855.41;6336293;22;45591;-89
2022/05/30 15:36:37;;;;;;;;;1.00;1.00;;;;;28.07;39.41;100862.59;6362684;22;47122;-89
2022/05/30 15:39:03;;;;;;;;;1.00;0.00;;;;;27.70;39.88;100851.84;6337712;22;45866;-89
2022/05/30 15:41:31;;;;;;;;;1.00;0.00;;;;;27.30;40.32;100853.66;6368239;22;45315;-89
2022/05/30 15:43:57;;;;;;;;;0.33;0.33;;;;;26.99;40.82;100850.72;6365951;22;45658;-88
2022/05/30 15:46:23;;;;;;;;;1.00;1.00;;;;;26.67;41.25;100849.63;6340484;22;46878;-88
2022/05/30 15:48:50;;;;;;;;;1.00;1.00;;;;;26.47;41.47;100847.34;6335529;22;45276;-89
2022/05/30 15:51:18;;;;;;;;;1.67;0.67;;;;;26.26;41.88;100850.38;6335449;22;45407;-90
2022/05/30 15:59:20;;;;;;;;;0.67;0.67;;;;;25.84;42.76;100838.59;6363872;22;45711;-90
2022/05/30 16:01:46;;;;;;;;;1.00;1.00;;;;;25.78;43.17;100836.88;6336056;22;45394;-89
2022/05/30 16:04:11;;;;;;;;;2.00;2.00;;;;;25.73;43.35;100830.69;6335900;22;45594;-90
2022/05/30 16:06:39;;;;;;;;;1.00;1.00;;;;;25.67;43.42;100833.44;6335742;22;48094;-89
2022/05/30 16:09:09;;;;;;;;;1.00;1.00;;;;;25.56;43.54;100826.44;6364947;22;45407;-89
2022/05/30 16:11:35;;;;;;;;;2.00;1.00;;;;;25.40;43.86;100831.19;6335225;22;45398;-89
2022/05/30 16:14:00;;;;;;;;;0.67;0.00;;;;;25.21;43.76;100836.84;6363183;22;45880;-89
2022/05/30 16:16:26;;;;;;;;;3.00;2.00;;;;;25.04;44.02;100836.19;6364078;22;46273;-89
2022/05/30 16:18:51;;;;;;;;;3.00;2.00;;;;;24.88;44.08;100828.31;6363794;22;45346;-89
2022/05/30 16:21:26;;;;;;;;;1.33;1.33;;;;;24.78;44.50;100824.88;6365000;22;45516;-90
2022/05/30 16:23:55;;;;;;;;;1.00;1.00;;;;;24.64;44.50;100822.34;6364036;22;45426;-89
2022/05/30 16:26:26;;;;;;;;;1.33;1.33;;;;;24.51;44.87;100824.28;6335383;22;47034;-89
2022/05/30 16:28:51;;;;;;;;;6.33;4.00;;;;;24.31;45.14;100812.91;6362369;22;45369;-90
2022/05/30 16:31:17;;;;;;;;;1.67;1.67;;;;;24.06;45.65;100814.94;6336168;22;45696;-89
2022/05/30 16:33:42;;;;;;;;;1.00;1.00;;;;;23.82;45.77;100822.28;6336443;22;45447;-89
2022/05/30 16:36:07;;;;;;;;;0.67;0.67;;;;;23.62;45.93;100813.53;6341196;22;52086;-90
2022/05/30 16:38:34;;;;;;;;;1.00;1.00;;;;;23.51;46.55;100812.72;6371449;22;50636;-90
2022/05/30 16:41:00;;;;;;;;;0.33;0.33;;;;;23.38;46.56;100811.91;6364558;22;45260;-90
2022/05/30 16:43:26;;;;;;;;;0.33;0.33;;;;;23.29;47.04;100812.88;6333766;22;45657;-90
2022/05/30 16:45:53;;;;;;;;;1.33;1.33;;;;;23.14;47.15;100809.38;6364097;22;45579;-90
2022/05/30 16:48:28;;;;;;;;;1.00;0.67;;;;;22.96;47.15;100803.22;6364205;22;45328;-90
2022/05/30 16:50:54;;;;;;;;;2.00;1.00;;;;;22.79;47.27;100797.09;6336147;22;45372;-90
2022/05/30 16:53:20;;;;;;;;;1.00;1.00;;;;;22.69;47.92;100802.44;6364530;22;45272;-89
2022/05/30 16:55:45;;;;;;;;;2.00;2.00;;;;;22.56;48.18;100793.59;6363809;22;47642;-89
2022/05/30 16:58:11;;;;;;;;;1.00;1.00;;;;;22.46;48.39;100798.09;6363258;22;45441;-94
2022/05/30 17:00:38;;;;;;;;;2.00;2.00;;;;;22.40;48.67;100807.00;6336141;22;45363;-91
2022/05/30 17:03:04;;;;;;;;;2.00;2.00;;;;;22.29;48.73;100803.50;6337028;22;45630;-91
2022/05/30 17:05:33;;;;;;;;;1.67;1.67;;;;;22.21;48.57;100800.84;6366020;22;45275;-94
2022/05/30 17:07:59;;;;;;;;;1.33;1.33;;;;;22.16;49.10;100800.81;6364806;22;45335;-92
2022/05/30 17:10:24;;;;;;;;;2.00;2.00;;;;;22.13;49.07;100791.94;6337363;22;45366;-91
2022/05/30 17:12:49;;;;;;;;;2.00;2.00;;;;;22.09;49.41;100799.06;6365380;22;45404;-92
2022/05/30 17:15:16;;;;;;;;;1.33;1.33;;;;;22.12;49.66;100796.41;6337034;22;46219;-92
2022/05/30 17:17:42;;;;;;;;;2.00;2.00;;;;;22.06;49.77;100796.44;6337387;22;45331;-88
2022/05/30 17:20:14;;;;;;;;;1.00;1.00;;;;;22.10;50.11;100807.09;6335968;22;45214;-90
2022/05/30 17:22:40;;;;;;;;;2.00;2.00;;;;;22.09;50.08;100805.31;6336503;22;45288;-88
2022/05/30 17:25:05;;;;;;;;;1.00;1.00;;;;;22.12;50.13;100806.19;6364649;22;47235;-89
2022/05/30 17:30:15;;;;;;;;;1.00;1.00;;;;;22.08;50.17;100800.88;6368789;22;45398;-87
2022/05/30 17:32:41;;;;;;;;;1.00;1.00;;;;;22.06;49.98;100805.31;6364626;22;45517;-88
2022/05/30 17:35:08;;;;;;;;;2.00;2.00;;;;;22.03;50.42;100796.44;6335577;22;48102;-89
2022/05/30 17:37:33;;;;;;;;;2.00;2.00;;;;;22.01;50.53;100807.09;6364070;22;45366;-90
2022/05/30 17:39:58;;;;;;;;;2.33;2.00;;;;;21.98;50.98;100794.63;6364564;22;45175;-89
2022/05/30 17:42:24;;;;;;;;;1.00;1.00;;;;;21.96;50.61;100807.09;6335926;22;45213;-91
2022/05/30 17:44:50;;;;;;;;;1.00;1.00;;;;;21.97;50.55;100800.00;6363953;22;45378;-92
2022/05/30 17:47:19;;;;;;;;;1.33;0.00;;;;;22.00;50.78;100813.34;6335182;22;45966;-94
2022/05/30 17:50:03;;;;;;;;;1.33;1.33;;;;;21.98;50.80;100808.00;6364597;22;45329;-90
2022/05/30 17:52:58;;;;;;;;;1.67;1.67;;;;;21.96;50.84;100809.78;6362925;22;45589;-92
2022/05/30 17:55:33;;;;;;;;;2.33;2.33;;;;;21.91;51.03;100808.91;6321373;22;46181;-93
2022/05/30 17:57:58;;;;;;;;;2.00;2.00;;;;;21.87;51.52;100809.81;6362261;22;45543;-91
2022/05/30 18:00:25;;;;;;;;;2.67;1.67;;;;;21.83;51.81;100802.63;6363437;22;45297;-90
2022/05/30 18:02:51;;;;;;;;;1.00;1.00;;;;;21.76;51.75;100799.09;6365006;22;45593;-94
2022/05/30 18:05:17;;;;;;;;;1.67;1.33;;;;;21.73;52.49;100817.78;6335857;22;47169;-95
2022/05/30 18:07:50;;;;;;;;;1.00;1.00;;;;;21.63;52.63;100809.78;6337677;22;45430;-94
2022/05/30 18:10:28;;;;;;;;;2.00;2.00;;;;;21.52;52.54;100801.75;6336184;22;45426;-91
2022/05/30 18:13:03;;;;;;;;;1.00;1.00;;;;;21.47;52.50;100808.88;6335491;22;45547;-90
2022/05/30 18:15:45;;;;;;;;;2.00;2.00;;;;;21.39;52.61;100811.53;6340481;22;47218;-91
2022/05/30 18:21:09;;;;;;;;;1.00;1.00;;;;;21.26;53.03;100791.94;6375766;22;45392;-91
2022/05/30 18:24:13;;;;;;;;;1.33;1.33;;;;;21.21;53.36;100799.94;6346149;22;45486;-83
2022/05/30 18:26:38;;;;;;;;;2.67;1.00;;;;;21.15;53.54;100809.72;6356930;22;46507;-93
2022/05/30 18:29:05;;;;;;;;;2.67;2.67;;;;;21.12;53.56;100809.72;6364770;22;45573;-90
2022/05/30 18:31:51;;;;;;;;;1.67;1.67;;;;;21.06;53.71;100802.56;6339366;22;45407;-92
2022/05/30 18:34:35;;;;;;;;;2.00;2.00;;;;;20.98;53.57;100794.50;6366057;22;45326;-92
2022/05/30 18:37:10;;;;;;;;;1.33;1.33;;;;;20.88;53.67;100797.16;6369498;22;46465;-91
2022/05/30 18:42:25;;;;;;;;;4.00;3.67;;;;;20.76;53.91;100798.03;6416150;22;46902;-90
2022/05/30 18:45:09;;;;;;;;;5.33;5.33;;;;;20.67;53.93;100800.63;6418612;22;44732;-90
2022/05/30 18:47:42;;;;;;;;;2.00;2.00;;;;;20.59;54.10;100797.06;6389882;22;48093;-90
2022/05/30 18:50:12;;;;;;;;;2.00;2.00;;;;;20.53;54.32;100800.59;6417134;22;45295;-89
2022/05/30 18:52:41;;;;;;;;;5.33;4.33;;;;;20.43;54.86;100797.00;6390253;22;45291;-88
2022/05/30 18:55:13;;;;;;;;;3.00;3.00;;;;;20.35;54.87;100788.97;6392345;22;44839;-89
2022/05/30 18:58:13;;;;;;;;;3.00;3.00;;;;;20.30;54.65;100799.59;6391744;22;46411;-88
2022/05/30 19:00:40;;;;;;;;;4.00;3.00;;;;;20.23;54.87;100791.56;6380617;22;45832;-89
2022/05/30 19:03:19;;;;;;;;;2.00;2.00;;;;;20.18;55.44;100792.41;6378324;22;45308;-89
2022/05/30 19:05:44;;;;;;;;;1.00;1.00;;;;;20.11;55.17;100793.22;6380772;22;45260;-87
2022/05/30 19:08:11;;;;;;;;;4.00;2.00;;;;;20.06;55.66;100787.88;6413327;22;46057;-86
2022/05/30 19:11:12;;;;;;;;;1.33;1.33;;;;;19.97;55.35;100794.00;6418443;22;44778;-87
2022/05/30 19:13:59;;;;;;;;;1.00;1.00;;;;;19.92;55.64;100795.75;6400501;22;45180;-88
2022/05/30 19:19:47;;;;;;;;;3.00;2.00;;;;;19.80;56.20;100785.00;6420104;22;45713;-86
2022/05/30 19:22:13;;;;;;;;;2.00;2.00;;;;;19.73;56.10;100771.66;6414731;22;45373;-87
2022/05/30 19:24:39;;;;;;;;;2.00;2.00;;;;;19.67;56.45;100776.94;6409023;22;45355;-86
2022/05/30 19:27:05;;;;;;;;;2.00;2.00;;;;;19.64;56.62;100772.47;6378905;22;45426;-87
2022/05/30 19:29:31;;;;;;;;;3.00;3.00;;;;;19.56;56.55;100770.66;6408514;22;45302;-87
2022/05/30 19:31:58;;;;;;;;;1.00;1.00;;;;;19.50;56.88;100767.06;6377111;22;45371;-87
2022/05/30 19:34:24;;;;;;;;;2.00;1.00;;;;;19.48;56.86;100768.78;6404264;22;45327;-86
2022/05/30 19:36:50;;;;;;;;;3.33;3.33;;;;;19.42;57.05;100774.97;6406834;22;45286;-86
2022/05/30 19:39:15;;;;;;;;;2.00;2.00;;;;;19.35;57.64;100772.25;6375204;22;46886;-86
2022/05/30 19:41:42;;;;;;;;;1.00;1.00;;;;;19.30;57.46;100773.06;6405529;22;45440;-86
2022/05/30 19:44:12;;;;;;;;;1.00;0.67;;;;;19.23;57.60;100767.66;6409560;22;45268;-86
2022/05/30 19:46:41;;;;;;;;;0.00;0.00;;;;;19.17;57.77;100763.16;6407240;22;45325;-86
2022/05/30 19:49:09;;;;;;;;;2.67;1.33;;;;;19.13;57.80;100762.22;6407327;22;45258;-87
2022/05/30 19:51:35;;;;;;;;;3.00;1.00;;;;;19.07;58.30;100749.75;6379652;22;45276;-87
2022/05/30 19:54:00;;;;;;;;;1.00;1.00;;;;;18.99;58.47;100752.34;6405429;22;45239;-87
2022/05/30 19:56:32;;;;;;;;;1.00;1.00;;;;;18.93;58.49;100743.41;6411606;22;45229;-87
2022/05/30 19:58:58;;;;;;;;;2.00;2.00;;;;;18.89;58.71;100750.44;6379427;22;46878;-88
2022/05/30 20:01:25;;;;;;;;;3.00;1.67;;;;;18.84;58.76;100757.47;6406172;22;45190;-88
2022/05/30 20:03:51;;;;;;;;;2.00;2.00;;;;;18.80;58.57;100758.34;6402830;22;45227;-87
2022/05/30 20:06:17;;;;;;;;;2.00;2.00;;;;;18.73;58.88;100750.31;6376598;22;45382;-87
2022/05/30 20:08:43;;;;;;;;;2.00;2.00;;;;;18.71;59.05;100757.34;6373593;22;47398;-88
2022/05/30 20:11:08;;;;;;;;;3.00;2.00;;;;;18.64;59.24;100742.22;6403145;22;45221;-88
2022/05/30 20:13:34;;;;;;;;;2.00;1.67;;;;;18.60;59.39;100743.06;6404580;22;45326;-89
2022/05/30 20:16:37;;;;;;;;;;;;;;;;;;;;;
2022/05/30 20:23:12;;;;;;;;;3.00;3.00;;;;;18.45;60.08;100736.66;6255585;22;45234;-94
2022/05/30 20:39:44;;;;;;;;;;;;;;;;;;;;;
2022/05/30 20:45:41;;;;;;;;;3.00;3.00;;;;;17.95;61.52;100696.16;6020913;23;44918;-95
2022/05/30 20:49:00;;;;;;;;;;;;;;;;;;;;;
2022/05/30 21:15:10;;;;;;;;;3.00;2.00;;;;;17.72;63.44;100627.69;5082439;27;45365;-95
2022/05/30 21:17:46;;;;;;;;;3.00;3.00;;;;;17.58;63.56;100601.84;5068033;27;45544;-95
2022/05/30 21:20:15;;;;;;;;;3.67;2.00;;;;;17.59;63.99;100598.34;5080745;27;45335;-96
2022/05/30 21:22:48;;;;;;;;;3.67;2.00;;;;;17.53;63.90;100590.28;5082455;27;45403;-95
2022/05/30 21:25:50;;;;;;;;;2.00;2.00;;;;;17.51;63.91;100578.75;5080208;27;47635;-96
2022/05/30 21:28:21;;;;;;;;;3.00;2.00;;;;;17.58;64.18;100590.34;5101927;27;45367;-94
2022/05/30 22:38:17;;;;;;;;;6.00;4.67;;;;;17.16;68.74;100371.41;5853635;23;46599;-93
2022/05/30 22:40:44;;;;;;;;;3.67;3.33;;;;;17.11;68.96;100341.25;5006491;28;47691;-95
2022/05/30 22:43:14;;;;;;;;;3.67;3.67;;;;;17.09;68.74;100349.19;5004093;28;45670;-94
2022/05/30 22:45:43;;;;;;;;;4.67;4.00;;;;;17.18;69.06;100344.91;5002595;28;45353;-95
2022/05/30 22:48:14;;;;;;;;;6.33;5.00;;;;;17.19;68.93;100354.63;5000823;28;45454;-95
2022/05/30 22:53:32;;;;;;;;;4.33;4.00;;;;;17.08;68.90;100342.13;4987644;28;45595;-95
2022/05/30 23:08:55;;;;;;;;;4.67;4.00;;;;;17.03;69.24;100319.97;5092178;23;46763;-93
2022/05/30 23:11:26;;;;;;;;;3.00;3.00;;;;;16.98;69.54;100306.66;5016626;28;46850;-93
2022/05/30 23:14:06;;;;;;;;;6.33;3.67;;;;;17.09;69.76;100319.13;5019354;28;45446;-94
2022/05/30 23:16:43;;;;;;;;;4.00;3.00;;;;;17.12;69.56;100320.94;5014055;28;45220;-94
2022/05/30 23:19:12;;;;;;;;;4.67;4.67;;;;;17.06;69.76;100305.88;5001803;28;45581;-94
2022/05/30 23:21:42;;;;;;;;;3.33;3.33;;;;;17.01;69.81;100307.56;5016927;28;46397;-93
2022/05/30 23:24:08;;;;;;;;;5.67;4.00;;;;;17.01;69.89;100299.63;5029055;28;45658;-93
2022/05/30 23:26:36;;;;;;;;;7.33;6.00;;;;;17.00;70.20;100288.13;5012762;28;45193;-94
2022/05/30 23:29:04;;;;;;;;;4.67;4.67;;;;;16.92;70.06;100279.19;5002711;28;45412;-94
2022/05/30 23:31:29;;;;;;;;;3.33;3.33;;;;;16.99;70.07;100296.94;5004610;28;47030;-94
2022/05/30 23:33:55;;;;;;;;;4.67;4.67;;;;;16.94;70.14;100290.69;5011634;28;45497;-94
2022/05/30 23:36:21;;;;;;;;;6.00;4.00;;;;;16.86;70.34;100277.34;5010250;28;45519;-94
2022/05/30 23:38:46;;;;;;;;;3.00;3.00;;;;;16.82;70.29;100273.78;5013183;28;45378;-94
2022/05/30 23:46:43;;;;;;;;;5.00;3.00;;;;;16.78;71.06;100261.34;5017102;28;45680;-94
2022/05/30 23:49:09;;;;;;;;;3.00;3.00;;;;;16.74;70.90;100254.25;5015524;28;45562;-93
2022/05/30 23:51:35;;;;;;;;;4.33;4.00;;;;;16.79;71.27;100256.94;5015868;28;47190;-94
2022/05/30 23:54:02;;;;;;;;;6.00;4.67;;;;;16.72;71.30;100250.69;5015564;28;45791;-94
2022/05/30 23:56:28;;;;;;;;;4.00;4.00;;;;;16.73;71.38;100253.34;5036122;28;45468;-94
2022/05/30 23:58:53;;;;;;;;;5.67;4.00;;;;;16.72;71.64;100243.66;5014874;28;45456;-94
